sensor_id;sensor_type;location;lat;lon;timestamp;temperature;humidity
30520;DHT22;17300;50.374;8.006;2022-08-01T00:00:20;24.70;50.00
30520;DHT22;17300;50.374;8.006;2022-08-01T00:02:47;24.60;50.10
30520;DHT22;17300;50.374;8.006;2022-08-01T00:05:14;24.60;50.20
30520;DHT22;17300;50.374;8.006;2022-08-01T00:07:40;24.50;50.20
30520;DHT22;17300;50.374;8.006;2022-08-01T00:10:09;24.50;50.30
30520;DHT22;17300;50.374;8.006;2022-08-01T00:12:38;24.40;50.30
30520;DHT22;17300;50.374;8.006;2022-08-01T00:15:06;24.40;50.30
30520;DHT22;17300;50.374;8.006;2022-08-01T00:17:33;24.30;50.30
30520;DHT22;17300;50.374;8.006;2022-08-01T00:20:01;24.30;50.40
30520;DHT22;17300;50.374;8.006;2022-08-01T00:22:30;24.20;50.60
30520;DHT22;17300;50.374;8.006;2022-08-01T00:24:57;24.10;50.60
30520;DHT22;17300;50.374;8.006;2022-08-01T00:27:24;24.10;50.60
30520;DHT22;17300;50.374;8.006;2022-08-01T00:29:52;24.10;50.70
30520;DHT22;17300;50.374;8.006;2022-08-01T00:32:19;24.00;50.90
30520;DHT22;17300;50.374;8.006;2022-08-01T00:34:45;24.00;50.90
30520;DHT22;17300;50.374;8.006;2022-08-01T00:37:12;23.90;50.90
30520;DHT22;17300;50.374;8.006;2022-08-01T00:39:39;23.90;51.10
30520;DHT22;17300;50.374;8.006;2022-08-01T00:42:07;23.90;51.20
30520;DHT22;17300;50.374;8.006;2022-08-01T00:44:34;23.90;51.30
30520;DHT22;17300;50.374;8.006;2022-08-01T00:47:02;23.90;51.40
30520;DHT22;17300;50.374;8.006;2022-08-01T00:49:29;23.80;51.50
30520;DHT22;17300;50.374;8.006;2022-08-01T00:51:56;23.80;51.50
30520;DHT22;17300;50.374;8.006;2022-08-01T00:54:24;23.80;51.60
30520;DHT22;17300;50.374;8.006;2022-08-01T00:56:52;23.80;51.80
30520;DHT22;17300;50.374;8.006;2022-08-01T00:59:21;23.80;51.80
30520;DHT22;17300;50.374;8.006;2022-08-01T01:01:49;23.80;52.00
30520;DHT22;17300;50.374;8.006;2022-08-01T01:04:17;23.80;51.90
30520;DHT22;17300;50.374;8.006;2022-08-01T01:06:48;23.80;52.00
30520;DHT22;17300;50.374;8.006;2022-08-01T01:09:30;23.70;52.20
30520;DHT22;17300;50.374;8.006;2022-08-01T01:12:07;23.80;52.40
30520;DHT22;17300;50.374;8.006;2022-08-01T01:14:43;23.70;52.20
30520;DHT22;17300;50.374;8.006;2022-08-01T01:17:13;23.70;52.20
30520;DHT22;17300;50.374;8.006;2022-08-01T01:19:45;23.70;52.10
30520;DHT22;17300;50.374;8.006;2022-08-01T01:22:33;23.70;52.30
30520;DHT22;17300;50.374;8.006;2022-08-01T01:25:09;23.70;52.70
30520;DHT22;17300;50.374;8.006;2022-08-01T01:27:47;23.60;52.40
30520;DHT22;17300;50.374;8.006;2022-08-01T01:30:18;23.60;52.50
30520;DHT22;17300;50.374;8.006;2022-08-01T01:32:48;23.60;52.40
30520;DHT22;17300;50.374;8.006;2022-08-01T01:35:21;23.50;52.50
30520;DHT22;17300;50.374;8.006;2022-08-01T01:37:51;23.50;52.70
30520;DHT22;17300;50.374;8.006;2022-08-01T01:40:20;23.50;52.50
30520;DHT22;17300;50.374;8.006;2022-08-01T01:42:48;23.50;52.70
30520;DHT22;17300;50.374;8.006;2022-08-01T01:45:18;23.50;52.70
30520;DHT22;17300;50.374;8.006;2022-08-01T01:47:45;23.50;52.90
30520;DHT22;17300;50.374;8.006;2022-08-01T01:50:15;23.40;52.70
30520;DHT22;17300;50.374;8.006;2022-08-01T01:52:42;23.50;53.00
30520;DHT22;17300;50.374;8.006;2022-08-01T01:55:11;23.40;52.80
30520;DHT22;17300;50.374;8.006;2022-08-01T01:57:41;23.50;53.00
30520;DHT22;17300;50.374;8.006;2022-08-01T02:00:11;23.40;53.10
30520;DHT22;17300;50.374;8.006;2022-08-01T02:02:41;23.40;53.20
30520;DHT22;17300;50.374;8.006;2022-08-01T02:05:10;23.50;53.50
30520;DHT22;17300;50.374;8.006;2022-08-01T02:07:39;23.50;53.50
30520;DHT22;17300;50.374;8.006;2022-08-01T02:10:07;23.60;53.50
30520;DHT22;17300;50.374;8.006;2022-08-01T02:12:37;23.60;53.60
30520;DHT22;17300;50.374;8.006;2022-08-01T02:15:06;23.70;53.60
30520;DHT22;17300;50.374;8.006;2022-08-01T02:17:39;23.70;53.70
30520;DHT22;17300;50.374;8.006;2022-08-01T02:20:08;23.80;53.80
30520;DHT22;17300;50.374;8.006;2022-08-01T02:22:40;23.90;53.70
30520;DHT22;17300;50.374;8.006;2022-08-01T02:25:12;23.90;53.70
30520;DHT22;17300;50.374;8.006;2022-08-01T02:27:47;24.00;53.80
30520;DHT22;17300;50.374;8.006;2022-08-01T02:30:17;24.00;54.20
30520;DHT22;17300;50.374;8.006;2022-08-01T02:32:47;24.00;53.40
30520;DHT22;17300;50.374;8.006;2022-08-01T02:35:26;24.10;53.60
30520;DHT22;17300;50.374;8.006;2022-08-01T02:37:55;24.10;53.90
30520;DHT22;17300;50.374;8.006;2022-08-01T02:40:23;24.10;53.50
30520;DHT22;17300;50.374;8.006;2022-08-01T02:42:54;24.10;53.50
30520;DHT22;17300;50.374;8.006;2022-08-01T02:45:25;24.10;53.60
30520;DHT22;17300;50.374;8.006;2022-08-01T02:47:57;24.10;53.70
30520;DHT22;17300;50.374;8.006;2022-08-01T02:50:26;24.10;53.70
30520;DHT22;17300;50.374;8.006;2022-08-01T02:52:55;24.20;53.60
30520;DHT22;17300;50.374;8.006;2022-08-01T02:55:24;24.20;53.50
30520;DHT22;17300;50.374;8.006;2022-08-01T02:57:54;24.30;53.60
30520;DHT22;17300;50.374;8.006;2022-08-01T03:00:22;24.30;53.70
30520;DHT22;17300;50.374;8.006;2022-08-01T03:02:52;24.30;54.20
30520;DHT22;17300;50.374;8.006;2022-08-01T03:05:21;24.40;53.60
30520;DHT22;17300;50.374;8.006;2022-08-01T03:07:49;24.40;53.50
30520;DHT22;17300;50.374;8.006;2022-08-01T03:10:16;24.40;53.50
30520;DHT22;17300;50.374;8.006;2022-08-01T03:12:45;24.50;53.60
30520;DHT22;17300;50.374;8.006;2022-08-01T03:15:13;24.50;53.50
30520;DHT22;17300;50.374;8.006;2022-08-01T03:17:43;24.50;53.40
30520;DHT22;17300;50.374;8.006;2022-08-01T03:20:14;24.50;53.40
30520;DHT22;17300;50.374;8.006;2022-08-01T03:22:43;24.60;53.50
30520;DHT22;17300;50.374;8.006;2022-08-01T03:25:12;24.60;53.40
30520;DHT22;17300;50.374;8.006;2022-08-01T03:27:40;24.70;53.40
30520;DHT22;17300;50.374;8.006;2022-08-01T03:30:09;24.70;53.30
30520;DHT22;17300;50.374;8.006;2022-08-01T03:32:36;24.70;53.40
30520;DHT22;17300;50.374;8.006;2022-08-01T03:35:04;24.70;53.40
30520;DHT22;17300;50.374;8.006;2022-08-01T03:37:35;24.70;53.30
30520;DHT22;17300;50.374;8.006;2022-08-01T03:40:07;24.70;53.40
30520;DHT22;17300;50.374;8.006;2022-08-01T03:42:41;24.70;53.30
30520;DHT22;17300;50.374;8.006;2022-08-01T03:45:13;24.80;53.40
30520;DHT22;17300;50.374;8.006;2022-08-01T03:47:43;24.80;53.40
30520;DHT22;17300;50.374;8.006;2022-08-01T03:50:11;24.80;53.30
30520;DHT22;17300;50.374;8.006;2022-08-01T03:52:43;24.80;53.20
30520;DHT22;17300;50.374;8.006;2022-08-01T03:55:12;24.90;53.30
30520;DHT22;17300;50.374;8.006;2022-08-01T03:57:40;24.90;53.10
30520;DHT22;17300;50.374;8.006;2022-08-01T04:00:08;24.90;53.10
30520;DHT22;17300;50.374;8.006;2022-08-01T04:02:35;24.90;53.20
30520;DHT22;17300;50.374;8.006;2022-08-01T04:05:04;24.90;53.10
30520;DHT22;17300;50.374;8.006;2022-08-01T04:07:32;24.90;53.70
30520;DHT22;17300;50.374;8.006;2022-08-01T04:10:03;24.80;54.80
30520;DHT22;17300;50.374;8.006;2022-08-01T04:12:30;24.90;54.30
30520;DHT22;17300;50.374;8.006;2022-08-01T04:14:58;24.90;53.90
30520;DHT22;17300;50.374;8.006;2022-08-01T04:17:24;25.00;53.70
30520;DHT22;17300;50.374;8.006;2022-08-01T04:19:51;25.00;53.60
30520;DHT22;17300;50.374;8.006;2022-08-01T04:22:18;25.00;53.50
30520;DHT22;17300;50.374;8.006;2022-08-01T04:24:48;25.10;53.50
30520;DHT22;17300;50.374;8.006;2022-08-01T04:27:20;25.10;53.40
30520;DHT22;17300;50.374;8.006;2022-08-01T04:29:49;25.10;53.40
30520;DHT22;17300;50.374;8.006;2022-08-01T04:32:19;25.10;53.40
30520;DHT22;17300;50.374;8.006;2022-08-01T04:34:48;25.10;53.40
30520;DHT22;17300;50.374;8.006;2022-08-01T04:37:17;25.10;53.60
30520;DHT22;17300;50.374;8.006;2022-08-01T04:39:45;25.10;53.80
30520;DHT22;17300;50.374;8.006;2022-08-01T04:42:14;25.10;54.00
30520;DHT22;17300;50.374;8.006;2022-08-01T04:44:43;25.10;54.00
30520;DHT22;17300;50.374;8.006;2022-08-01T04:47:10;25.20;54.10
30520;DHT22;17300;50.374;8.006;2022-08-01T04:49:39;25.10;54.00
30520;DHT22;17300;50.374;8.006;2022-08-01T04:52:07;25.10;54.10
30520;DHT22;17300;50.374;8.006;2022-08-01T04:54:35;25.10;54.00
30520;DHT22;17300;50.374;8.006;2022-08-01T04:57:03;25.10;54.10
30520;DHT22;17300;50.374;8.006;2022-08-01T04:59:31;25.10;54.70
30520;DHT22;17300;50.374;8.006;2022-08-01T05:02:09;25.10;54.20
30520;DHT22;17300;50.374;8.006;2022-08-01T05:04:37;25.10;54.30
30520;DHT22;17300;50.374;8.006;2022-08-01T05:07:05;25.10;54.30
30520;DHT22;17300;50.374;8.006;2022-08-01T05:09:32;25.10;54.30
30520;DHT22;17300;50.374;8.006;2022-08-01T05:12:00;25.10;54.40
30520;DHT22;17300;50.374;8.006;2022-08-01T05:14:28;25.10;54.40
30520;DHT22;17300;50.374;8.006;2022-08-01T05:16:57;25.10;54.50
30520;DHT22;17300;50.374;8.006;2022-08-01T05:19:26;25.10;54.40
30520;DHT22;17300;50.374;8.006;2022-08-01T05:21:52;25.10;54.50
30520;DHT22;17300;50.374;8.006;2022-08-01T05:24:19;25.10;54.50
30520;DHT22;17300;50.374;8.006;2022-08-01T05:26:48;25.10;54.60
30520;DHT22;17300;50.374;8.006;2022-08-01T05:29:14;25.20;54.70
30520;DHT22;17300;50.374;8.006;2022-08-01T05:31:41;25.20;54.70
30520;DHT22;17300;50.374;8.006;2022-08-01T05:34:08;25.20;54.60
30520;DHT22;17300;50.374;8.006;2022-08-01T05:36:36;25.30;54.70
30520;DHT22;17300;50.374;8.006;2022-08-01T05:39:03;25.20;54.70
30520;DHT22;17300;50.374;8.006;2022-08-01T05:41:30;25.30;54.70
30520;DHT22;17300;50.374;8.006;2022-08-01T05:43:57;25.30;54.60
30520;DHT22;17300;50.374;8.006;2022-08-01T05:46:24;25.30;54.60
30520;DHT22;17300;50.374;8.006;2022-08-01T05:48:50;25.30;54.60
30520;DHT22;17300;50.374;8.006;2022-08-01T05:51:18;25.30;54.70
30520;DHT22;17300;50.374;8.006;2022-08-01T05:53:46;25.40;54.60
30520;DHT22;17300;50.374;8.006;2022-08-01T05:56:13;25.40;54.60
30520;DHT22;17300;50.374;8.006;2022-08-01T05:58:40;25.40;54.50
30520;DHT22;17300;50.374;8.006;2022-08-01T06:01:06;25.40;54.50
30520;DHT22;17300;50.374;8.006;2022-08-01T06:03:33;25.40;54.50
30520;DHT22;17300;50.374;8.006;2022-08-01T06:06:00;25.40;54.50
30520;DHT22;17300;50.374;8.006;2022-08-01T06:08:27;25.40;54.50
30520;DHT22;17300;50.374;8.006;2022-08-01T06:10:56;25.40;54.50
30520;DHT22;17300;50.374;8.006;2022-08-01T06:13:23;25.40;54.60
30520;DHT22;17300;50.374;8.006;2022-08-01T06:15:49;25.40;54.60
30520;DHT22;17300;50.374;8.006;2022-08-01T06:18:17;25.40;54.60
30520;DHT22;17300;50.374;8.006;2022-08-01T06:20:44;25.40;54.70
30520;DHT22;17300;50.374;8.006;2022-08-01T06:23:10;25.40;54.70
30520;DHT22;17300;50.374;8.006;2022-08-01T06:25:39;25.50;54.60
30520;DHT22;17300;50.374;8.006;2022-08-01T06:28:07;25.50;54.60
30520;DHT22;17300;50.374;8.006;2022-08-01T06:30:34;25.50;54.70
30520;DHT22;17300;50.374;8.006;2022-08-01T06:33:00;25.60;54.80
30520;DHT22;17300;50.374;8.006;2022-08-01T06:35:28;25.60;54.70
30520;DHT22;17300;50.374;8.006;2022-08-01T06:37:55;25.70;54.70
30520;DHT22;17300;50.374;8.006;2022-08-01T06:40:22;25.70;54.70
30520;DHT22;17300;50.374;8.006;2022-08-01T06:42:48;25.80;54.80
30520;DHT22;17300;50.374;8.006;2022-08-01T06:45:17;25.90;55.10
30520;DHT22;17300;50.374;8.006;2022-08-01T06:47:44;26.10;55.30
30520;DHT22;17300;50.374;8.006;2022-08-01T06:50:11;26.30;55.40
30520;DHT22;17300;50.374;8.006;2022-08-01T06:52:40;26.60;55.40
30520;DHT22;17300;50.374;8.006;2022-08-01T06:55:08;26.80;55.00
30520;DHT22;17300;50.374;8.006;2022-08-01T06:57:35;27.00;54.50
30520;DHT22;17300;50.374;8.006;2022-08-01T07:00:03;27.20;54.10
30520;DHT22;17300;50.374;8.006;2022-08-01T07:02:32;27.30;53.50
30520;DHT22;17300;50.374;8.006;2022-08-01T07:04:59;27.40;53.10
30520;DHT22;17300;50.374;8.006;2022-08-01T07:07:26;27.40;53.00
30520;DHT22;17300;50.374;8.006;2022-08-01T07:09:53;27.50;53.10
30520;DHT22;17300;50.374;8.006;2022-08-01T07:12:19;27.50;53.00
30520;DHT22;17300;50.374;8.006;2022-08-01T07:14:46;27.60;53.10
30520;DHT22;17300;50.374;8.006;2022-08-01T07:17:13;27.70;53.00
30520;DHT22;17300;50.374;8.006;2022-08-01T07:19:41;27.90;52.80
30520;DHT22;17300;50.374;8.006;2022-08-01T07:22:08;27.90;52.60
30520;DHT22;17300;50.374;8.006;2022-08-01T07:24:35;28.00;52.30
30520;DHT22;17300;50.374;8.006;2022-08-01T07:27:01;28.10;52.20
30520;DHT22;17300;50.374;8.006;2022-08-01T07:29:28;28.10;52.10
30520;DHT22;17300;50.374;8.006;2022-08-01T07:31:56;28.20;51.90
30520;DHT22;17300;50.374;8.006;2022-08-01T07:34:24;28.30;52.00
30520;DHT22;17300;50.374;8.006;2022-08-01T07:36:52;28.40;52.00
30520;DHT22;17300;50.374;8.006;2022-08-01T07:39:19;28.50;52.10
30520;DHT22;17300;50.374;8.006;2022-08-01T07:41:46;28.70;52.60
30520;DHT22;17300;50.374;8.006;2022-08-01T07:44:13;29.10;54.50
30520;DHT22;17300;50.374;8.006;2022-08-01T07:46:40;29.90;56.70
30520;DHT22;17300;50.374;8.006;2022-08-01T07:49:07;31.00;57.90
30520;DHT22;17300;50.374;8.006;2022-08-01T07:51:34;32.30;57.70
30520;DHT22;17300;50.374;8.006;2022-08-01T07:54:02;33.70;56.30
30520;DHT22;17300;50.374;8.006;2022-08-01T07:56:29;35.10;52.90
30520;DHT22;17300;50.374;8.006;2022-08-01T07:58:56;36.10;49.30
30520;DHT22;17300;50.374;8.006;2022-08-01T08:01:22;36.70;45.80
30520;DHT22;17300;50.374;8.006;2022-08-01T08:03:49;37.00;43.40
30520;DHT22;17300;50.374;8.006;2022-08-01T08:06:16;37.10;42.00
30520;DHT22;17300;50.374;8.006;2022-08-01T08:08:43;37.10;41.80
30520;DHT22;17300;50.374;8.006;2022-08-01T08:11:11;37.30;43.10
30520;DHT22;17300;50.374;8.006;2022-08-01T08:13:37;37.70;43.30
30520;DHT22;17300;50.374;8.006;2022-08-01T08:16:04;38.20;42.20
30520;DHT22;17300;50.374;8.006;2022-08-01T08:18:31;38.70;41.20
30520;DHT22;17300;50.374;8.006;2022-08-01T08:20:58;39.10;40.50
30520;DHT22;17300;50.374;8.006;2022-08-01T08:23:24;39.40;39.60
30520;DHT22;17300;50.374;8.006;2022-08-01T08:26:09;39.80;38.30
30520;DHT22;17300;50.374;8.006;2022-08-01T08:28:37;39.80;36.80
30520;DHT22;17300;50.374;8.006;2022-08-01T08:31:04;39.70;35.80
30520;DHT22;17300;50.374;8.006;2022-08-01T08:33:30;39.40;35.70
30520;DHT22;17300;50.374;8.006;2022-08-01T08:35:57;39.20;35.30
30520;DHT22;17300;50.374;8.006;2022-08-01T08:38:24;38.90;35.40
30520;DHT22;17300;50.374;8.006;2022-08-01T08:40:52;38.80;36.40
30520;DHT22;17300;50.374;8.006;2022-08-01T08:43:20;39.00;37.10
30520;DHT22;17300;50.374;8.006;2022-08-01T08:45:49;39.40;37.90
30520;DHT22;17300;50.374;8.006;2022-08-01T08:48:16;40.10;38.00
30520;DHT22;17300;50.374;8.006;2022-08-01T08:50:45;40.90;37.90
30520;DHT22;17300;50.374;8.006;2022-08-01T08:53:14;41.90;36.90
30520;DHT22;17300;50.374;8.006;2022-08-01T08:55:42;42.80;35.40
30520;DHT22;17300;50.374;8.006;2022-08-01T08:58:12;43.70;33.70
30520;DHT22;17300;50.374;8.006;2022-08-01T09:00:39;44.30;32.40
30520;DHT22;17300;50.374;8.006;2022-08-01T09:03:07;45.00;32.50
30520;DHT22;17300;50.374;8.006;2022-08-01T09:05:34;45.80;31.50
30520;DHT22;17300;50.374;8.006;2022-08-01T09:08:01;46.50;30.80
30520;DHT22;17300;50.374;8.006;2022-08-01T09:10:29;47.10;29.80
30520;DHT22;17300;50.374;8.006;2022-08-01T09:13:03;47.70;29.10
30520;DHT22;17300;50.374;8.006;2022-08-01T09:15:41;48.20;27.70
30520;DHT22;17300;50.374;8.006;2022-08-01T09:18:25;48.50;27.00
30520;DHT22;17300;50.374;8.006;2022-08-01T09:21:11;48.40;26.80
30520;DHT22;17300;50.374;8.006;2022-08-01T09:23:40;47.90;25.70
30520;DHT22;17300;50.374;8.006;2022-08-01T09:26:08;47.20;25.00
30520;DHT22;17300;50.374;8.006;2022-08-01T09:28:35;46.50;25.30
30520;DHT22;17300;50.374;8.006;2022-08-01T09:31:07;45.70;25.80
30520;DHT22;17300;50.374;8.006;2022-08-01T09:33:52;45.20;26.40
30520;DHT22;17300;50.374;8.006;2022-08-01T09:36:21;44.70;27.30
30520;DHT22;17300;50.374;8.006;2022-08-01T09:38:48;44.50;26.90
30520;DHT22;17300;50.374;8.006;2022-08-01T09:41:15;44.20;26.90
30520;DHT22;17300;50.374;8.006;2022-08-01T09:43:54;44.00;27.10
30520;DHT22;17300;50.374;8.006;2022-08-01T09:46:24;43.70;27.20
30520;DHT22;17300;50.374;8.006;2022-08-01T09:49:00;43.50;27.40
30520;DHT22;17300;50.374;8.006;2022-08-01T09:51:29;43.20;27.30
30520;DHT22;17300;50.374;8.006;2022-08-01T09:53:56;43.10;27.50
30520;DHT22;17300;50.374;8.006;2022-08-01T09:56:24;43.00;28.10
30520;DHT22;17300;50.374;8.006;2022-08-01T09:58:55;43.20;28.50
30520;DHT22;17300;50.374;8.006;2022-08-01T10:01:22;43.50;28.40
30520;DHT22;17300;50.374;8.006;2022-08-01T10:04:06;44.10;28.80
30520;DHT22;17300;50.374;8.006;2022-08-01T10:06:33;44.70;28.20
30520;DHT22;17300;50.374;8.006;2022-08-01T10:09:01;45.00;27.00
30520;DHT22;17300;50.374;8.006;2022-08-01T10:11:28;45.00;26.20
30520;DHT22;17300;50.374;8.006;2022-08-01T10:13:58;44.90;26.30
30520;DHT22;17300;50.374;8.006;2022-08-01T10:16:26;44.80;26.10
30520;DHT22;17300;50.374;8.006;2022-08-01T10:18:55;44.60;25.70
30520;DHT22;17300;50.374;8.006;2022-08-01T10:21:27;44.20;25.50
30520;DHT22;17300;50.374;8.006;2022-08-01T10:23:55;44.00;26.10
30520;DHT22;17300;50.374;8.006;2022-08-01T10:26:25;43.80;26.60
30520;DHT22;17300;50.374;8.006;2022-08-01T10:28:54;43.80;26.30
30520;DHT22;17300;50.374;8.006;2022-08-01T10:31:23;43.70;26.10
30520;DHT22;17300;50.374;8.006;2022-08-01T10:33:50;43.50;26.30
30520;DHT22;17300;50.374;8.006;2022-08-01T10:36:18;43.30;26.10
30520;DHT22;17300;50.374;8.006;2022-08-01T10:38:47;43.10;26.00
30520;DHT22;17300;50.374;8.006;2022-08-01T10:41:15;42.80;26.30
30520;DHT22;17300;50.374;8.006;2022-08-01T10:43:45;42.70;27.00
30520;DHT22;17300;50.374;8.006;2022-08-01T10:46:16;42.70;27.20
30520;DHT22;17300;50.374;8.006;2022-08-01T10:48:53;42.80;27.30
30520;DHT22;17300;50.374;8.006;2022-08-01T10:51:21;43.10;27.90
30520;DHT22;17300;50.374;8.006;2022-08-01T10:53:53;43.30;27.30
30520;DHT22;17300;50.374;8.006;2022-08-01T10:56:21;43.50;26.80
30520;DHT22;17300;50.374;8.006;2022-08-01T10:58:48;43.70;26.80
30520;DHT22;17300;50.374;8.006;2022-08-01T11:01:25;43.70;26.70
30520;DHT22;17300;50.374;8.006;2022-08-01T11:04:07;43.80;26.80
30520;DHT22;17300;50.374;8.006;2022-08-01T11:06:53;43.90;26.60
30520;DHT22;17300;50.374;8.006;2022-08-01T11:09:27;43.80;26.20
30520;DHT22;17300;50.374;8.006;2022-08-01T11:12:00;43.70;25.60
30520;DHT22;17300;50.374;8.006;2022-08-01T11:14:29;43.10;25.50
30520;DHT22;17300;50.374;8.006;2022-08-01T11:16:56;42.80;25.90
30520;DHT22;17300;50.374;8.006;2022-08-01T11:19:22;42.50;26.50
30520;DHT22;17300;50.374;8.006;2022-08-01T11:21:58;42.40;26.90
30520;DHT22;17300;50.374;8.006;2022-08-01T11:24:57;42.40;26.90
30520;DHT22;17300;50.374;8.006;2022-08-01T11:27:26;42.40;26.90
30520;DHT22;17300;50.374;8.006;2022-08-01T11:30:21;42.50;26.50
30520;DHT22;17300;50.374;8.006;2022-08-01T11:32:50;42.50;26.50
30520;DHT22;17300;50.374;8.006;2022-08-01T11:35:18;42.50;26.40
30520;DHT22;17300;50.374;8.006;2022-08-01T11:37:46;42.30;26.30
30520;DHT22;17300;50.374;8.006;2022-08-01T11:40:20;42.20;26.30
30520;DHT22;17300;50.374;8.006;2022-08-01T11:42:47;41.90;26.10
30520;DHT22;17300;50.374;8.006;2022-08-01T11:45:15;41.80;26.20
30520;DHT22;17300;50.374;8.006;2022-08-01T11:47:46;41.40;26.10
30520;DHT22;17300;50.374;8.006;2022-08-01T11:50:33;41.10;26.40
30520;DHT22;17300;50.374;8.006;2022-08-01T11:53:01;40.80;27.00
30520;DHT22;17300;50.374;8.006;2022-08-01T11:55:31;40.60;26.90
30520;DHT22;17300;50.374;8.006;2022-08-01T11:58:03;40.30;27.00
30520;DHT22;17300;50.374;8.006;2022-08-01T12:00:31;40.00;27.20
30520;DHT22;17300;50.374;8.006;2022-08-01T12:03:01;39.70;27.20
30520;DHT22;17300;50.374;8.006;2022-08-01T12:05:29;39.50;27.60
30520;DHT22;17300;50.374;8.006;2022-08-01T12:07:59;39.30;27.60
30520;DHT22;17300;50.374;8.006;2022-08-01T12:10:27;39.10;27.70
30520;DHT22;17300;50.374;8.006;2022-08-01T12:13:01;38.90;27.60
30520;DHT22;17300;50.374;8.006;2022-08-01T12:15:30;38.80;27.60
30520;DHT22;17300;50.374;8.006;2022-08-01T12:17:58;38.60;27.80
30520;DHT22;17300;50.374;8.006;2022-08-01T12:20:26;38.50;28.10
30520;DHT22;17300;50.374;8.006;2022-08-01T12:22:54;38.40;28.30
30520;DHT22;17300;50.374;8.006;2022-08-01T12:25:21;38.30;28.50
30520;DHT22;17300;50.374;8.006;2022-08-01T12:27:48;38.10;28.40
30520;DHT22;17300;50.374;8.006;2022-08-01T12:30:18;37.90;29.00
30520;DHT22;17300;50.374;8.006;2022-08-01T12:32:49;37.60;28.50
30520;DHT22;17300;50.374;8.006;2022-08-01T12:35:17;37.40;28.70
30520;DHT22;17300;50.374;8.006;2022-08-01T12:37:46;37.20;28.90
30520;DHT22;17300;50.374;8.006;2022-08-01T12:40:15;36.90;29.10
30520;DHT22;17300;50.374;8.006;2022-08-01T12:42:43;36.70;29.20
30520;DHT22;17300;50.374;8.006;2022-08-01T12:45:13;36.50;29.30
30520;DHT22;17300;50.374;8.006;2022-08-01T12:47:42;36.20;29.50
30520;DHT22;17300;50.374;8.006;2022-08-01T12:50:14;35.90;29.70
30520;DHT22;17300;50.374;8.006;2022-08-01T12:52:41;35.70;29.90
30520;DHT22;17300;50.374;8.006;2022-08-01T12:55:12;35.50;29.90
30520;DHT22;17300;50.374;8.006;2022-08-01T12:57:40;35.30;30.10
30520;DHT22;17300;50.374;8.006;2022-08-01T13:00:16;35.10;30.40
30520;DHT22;17300;50.374;8.006;2022-08-01T13:02:46;34.90;30.70
30520;DHT22;17300;50.374;8.006;2022-08-01T13:05:14;34.80;30.80
30520;DHT22;17300;50.374;8.006;2022-08-01T13:07:44;34.70;31.10
30520;DHT22;17300;50.374;8.006;2022-08-01T13:10:12;34.50;31.00
30520;DHT22;17300;50.374;8.006;2022-08-01T13:12:39;34.40;31.20
30520;DHT22;17300;50.374;8.006;2022-08-01T13:15:17;34.30;31.40
30520;DHT22;17300;50.374;8.006;2022-08-01T13:17:45;34.20;31.50
30520;DHT22;17300;50.374;8.006;2022-08-01T13:20:25;34.10;31.70
30520;DHT22;17300;50.374;8.006;2022-08-01T13:22:53;34.00;31.80
30520;DHT22;17300;50.374;8.006;2022-08-01T13:25:20;34.00;31.80
30520;DHT22;17300;50.374;8.006;2022-08-01T13:27:47;33.90;32.00
30520;DHT22;17300;50.374;8.006;2022-08-01T13:30:15;33.80;32.10
30520;DHT22;17300;50.374;8.006;2022-08-01T13:32:43;33.80;32.10
30520;DHT22;17300;50.374;8.006;2022-08-01T13:35:12;33.80;32.30
30520;DHT22;17300;50.374;8.006;2022-08-01T13:37:41;33.70;32.40
30520;DHT22;17300;50.374;8.006;2022-08-01T13:40:10;33.70;32.50
30520;DHT22;17300;50.374;8.006;2022-08-01T13:42:37;33.70;32.50
30520;DHT22;17300;50.374;8.006;2022-08-01T13:45:06;33.70;32.40
30520;DHT22;17300;50.374;8.006;2022-08-01T13:47:36;33.70;32.50
30520;DHT22;17300;50.374;8.006;2022-08-01T13:50:03;33.70;32.70
30520;DHT22;17300;50.374;8.006;2022-08-01T13:52:31;33.70;32.70
30520;DHT22;17300;50.374;8.006;2022-08-01T13:54:58;33.60;32.80
30520;DHT22;17300;50.374;8.006;2022-08-01T13:57:26;33.70;33.50
30520;DHT22;17300;50.374;8.006;2022-08-01T13:59:52;33.70;32.90
30520;DHT22;17300;50.374;8.006;2022-08-01T14:02:19;33.70;32.90
30520;DHT22;17300;50.374;8.006;2022-08-01T14:04:46;33.80;33.00
30520;DHT22;17300;50.374;8.006;2022-08-01T14:07:13;33.80;33.10
30520;DHT22;17300;50.374;8.006;2022-08-01T14:09:41;33.90;33.10
30520;DHT22;17300;50.374;8.006;2022-08-01T14:12:08;34.10;33.10
30520;DHT22;17300;50.374;8.006;2022-08-01T14:14:35;34.10;32.80
30520;DHT22;17300;50.374;8.006;2022-08-01T14:17:02;34.20;32.90
30520;DHT22;17300;50.374;8.006;2022-08-01T14:19:29;34.20;32.50
30520;DHT22;17300;50.374;8.006;2022-08-01T14:21:56;34.30;32.50
30520;DHT22;17300;50.374;8.006;2022-08-01T14:24:22;34.20;32.50
30520;DHT22;17300;50.374;8.006;2022-08-01T14:26:51;34.20;32.40
30520;DHT22;17300;50.374;8.006;2022-08-01T14:29:17;34.10;32.30
30520;DHT22;17300;50.374;8.006;2022-08-01T14:31:44;34.00;32.30
30520;DHT22;17300;50.374;8.006;2022-08-01T14:34:11;33.90;33.10
30520;DHT22;17300;50.374;8.006;2022-08-01T14:36:38;33.80;32.70
30520;DHT22;17300;50.374;8.006;2022-08-01T14:39:05;33.80;33.00
30520;DHT22;17300;50.374;8.006;2022-08-01T14:41:32;33.60;33.00
30520;DHT22;17300;50.374;8.006;2022-08-01T14:44:00;33.50;33.30
30520;DHT22;17300;50.374;8.006;2022-08-01T14:46:27;33.60;33.70
30520;DHT22;17300;50.374;8.006;2022-08-01T14:48:53;33.50;33.70
30520;DHT22;17300;50.374;8.006;2022-08-01T14:51:20;33.50;33.60
30520;DHT22;17300;50.374;8.006;2022-08-01T14:53:47;33.50;33.80
30520;DHT22;17300;50.374;8.006;2022-08-01T14:56:14;33.40;33.80
30520;DHT22;17300;50.374;8.006;2022-08-01T14:58:40;33.40;33.90
30520;DHT22;17300;50.374;8.006;2022-08-01T15:01:09;33.40;33.90
30520;DHT22;17300;50.374;8.006;2022-08-01T15:03:35;33.30;34.00
30520;DHT22;17300;50.374;8.006;2022-08-01T15:06:03;33.20;34.00
30520;DHT22;17300;50.374;8.006;2022-08-01T15:08:31;33.20;34.10
30520;DHT22;17300;50.374;8.006;2022-08-01T15:10:58;33.10;34.10
30520;DHT22;17300;50.374;8.006;2022-08-01T15:13:26;33.10;34.30
30520;DHT22;17300;50.374;8.006;2022-08-01T15:15:53;32.90;34.20
30520;DHT22;17300;50.374;8.006;2022-08-01T15:18:21;32.90;34.30
30520;DHT22;17300;50.374;8.006;2022-08-01T15:20:47;32.90;34.40
30520;DHT22;17300;50.374;8.006;2022-08-01T15:23:15;32.80;34.60
30520;DHT22;17300;50.374;8.006;2022-08-01T15:25:41;32.80;34.70
30520;DHT22;17300;50.374;8.006;2022-08-01T15:28:08;32.80;34.80
30520;DHT22;17300;50.374;8.006;2022-08-01T15:30:35;32.70;34.80
30520;DHT22;17300;50.374;8.006;2022-08-01T15:33:02;32.70;34.80
30520;DHT22;17300;50.374;8.006;2022-08-01T15:35:30;32.70;35.10
30520;DHT22;17300;50.374;8.006;2022-08-01T15:37:57;32.70;35.30
30520;DHT22;17300;50.374;8.006;2022-08-01T15:40:24;32.60;35.20